createdAt,value
2017-07-04T00:01:10.820Z,95435.11
2017-07-04T00:03:38.438Z,95437.05
2017-07-04T00:06:06.025Z,95434.13
2017-07-04T00:08:33.653Z,95435.70
2017-07-04T00:11:01.409Z,95437.48
2017-07-04T00:13:29.371Z,95440.40
2017-07-04T00:15:56.977Z,95445.30
2017-07-04T00:18:24.720Z,95439.86
2017-07-04T00:20:52.318Z,95445.36
2017-07-04T00:23:19.955Z,95440.66
2017-07-04T00:25:47.718Z,95435.37
2017-07-04T00:28:15.310Z,95435.72
2017-07-04T00:30:42.929Z,95436.76
2017-07-04T00:33:10.704Z,95435.33
2017-07-04T00:35:38.277Z,95435.89
2017-07-04T00:38:05.854Z,95440.97
2017-07-04T00:40:33.688Z,95447.22
2017-07-04T00:43:01.428Z,95440.34
2017-07-04T00:45:29.023Z,95449.33
2017-07-04T00:47:56.586Z,95452.23
2017-07-04T00:50:24.108Z,95451.48
2017-07-04T00:52:51.739Z,95450.91
2017-07-04T00:55:19.282Z,95461.85
2017-07-04T00:57:46.862Z,95454.64
2017-07-04T01:00:14.651Z,95468.14
2017-07-04T01:02:42.388Z,95463.27
2017-07-04T01:05:09.956Z,95461.83
2017-07-04T01:07:37.586Z,95476.08
2017-07-04T01:10:05.158Z,95467.49
2017-07-04T01:12:32.688Z,95471.76
2017-07-04T01:15:00.312Z,95469.23
2017-07-04T01:17:27.873Z,95469.02
2017-07-04T01:19:55.463Z,95473.13
2017-07-04T01:22:23.072Z,95476.05
2017-07-04T01:24:53.243Z,95475.52
2017-07-04T01:27:21.580Z,95476.10
2017-07-04T01:30:00.946Z,95483.13
2017-07-04T01:32:28.786Z,95479.00
2017-07-04T01:34:56.333Z,95478.45
2017-07-04T01:37:23.882Z,95480.73
2017-07-04T01:39:57.026Z,95488.39
2017-07-04T01:42:24.631Z,95487.45
2017-07-04T01:44:52.171Z,95489.91
2017-07-04T01:47:19.818Z,95481.13
2017-07-04T01:49:47.365Z,95482.59
2017-07-04T01:52:14.938Z,95492.16
2017-07-04T01:54:42.505Z,95492.13
2017-07-04T01:57:10.069Z,95489.03
2017-07-04T01:59:37.817Z,95494.11
2017-07-04T02:02:05.480Z,95491.67
2017-07-04T02:04:33.026Z,95493.03
2017-07-04T02:07:00.606Z,95491.47
2017-07-04T02:09:28.193Z,95494.16
2017-07-04T02:11:55.826Z,95493.00
2017-07-04T02:14:23.354Z,95499.08
2017-07-04T02:16:51.169Z,95499.47
2017-07-04T02:19:18.903Z,95510.38
2017-07-04T02:21:46.771Z,95502.61
2017-07-04T02:24:14.353Z,95504.77
2017-07-04T02:26:41.922Z,95509.42
2017-07-04T02:29:09.465Z,95504.77
2017-07-04T02:31:37.094Z,95515.28
2017-07-04T02:34:04.864Z,95515.25
2017-07-04T02:36:32.625Z,95507.95
2017-07-04T02:39:00.202Z,95504.81
2017-07-04T02:41:27.744Z,95517.17
2017-07-04T02:43:55.291Z,95511.48
2017-07-04T02:46:23.152Z,95509.95
2017-07-04T02:48:50.771Z,95514.09
2017-07-04T02:51:19.017Z,95519.17
2017-07-04T02:53:46.598Z,95522.91
2017-07-04T02:56:14.152Z,95517.83
2017-07-04T02:58:41.943Z,95527.99
2017-07-04T03:01:09.524Z,95521.45
2017-07-04T03:03:37.102Z,95522.09
2017-07-04T03:06:04.840Z,95528.59
2017-07-04T03:08:32.449Z,95531.55
2017-07-04T03:11:00.090Z,95536.36
2017-07-04T03:13:27.688Z,95536.00
2017-07-04T03:15:55.280Z,95534.59
2017-07-04T03:18:22.878Z,95528.73
2017-07-04T03:20:50.664Z,95532.28
2017-07-04T03:23:18.285Z,95532.07
2017-07-04T03:25:45.957Z,95537.03
2017-07-04T03:28:13.702Z,95534.28
2017-07-04T03:30:41.289Z,95536.20
2017-07-04T03:33:09.110Z,95541.05
2017-07-04T03:35:36.922Z,95540.98
2017-07-04T03:38:04.530Z,95547.13
2017-07-04T03:40:32.327Z,95542.95
2017-07-04T03:42:59.850Z,95550.67
2017-07-04T03:45:27.429Z,95550.92
2017-07-04T03:47:55.913Z,95548.25
2017-07-04T03:50:23.438Z,95554.73
2017-07-04T03:52:51.021Z,95559.73
2017-07-04T03:55:18.548Z,95561.07
2017-07-04T03:57:46.074Z,95563.70
2017-07-04T04:00:13.716Z,95561.40
2017-07-04T04:02:41.313Z,95561.36
2017-07-04T04:05:08.876Z,95560.85
2017-07-04T04:07:36.472Z,95569.67
2017-07-04T04:10:04.055Z,95565.47
2017-07-04T04:12:31.842Z,95571.67
2017-07-04T04:14:59.427Z,95573.36
2017-07-04T04:17:27.013Z,95567.84
2017-07-04T04:19:54.872Z,95576.20
2017-07-04T04:22:22.447Z,95588.31
2017-07-04T04:24:50.225Z,95586.39
2017-07-04T04:27:17.788Z,95583.81
2017-07-04T04:29:45.374Z,95582.52
2017-07-04T04:32:12.983Z,95593.13
2017-07-04T04:34:40.542Z,95589.75
2017-07-04T04:37:08.098Z,95596.77
2017-07-04T04:39:35.690Z,95592.29
2017-07-04T04:42:03.274Z,95600.34
2017-07-04T04:44:30.820Z,95608.66
2017-07-04T04:46:58.428Z,95607.30
2017-07-04T04:49:25.998Z,95604.36
2017-07-04T04:51:53.558Z,95605.25
2017-07-04T04:54:21.144Z,95606.31
2017-07-04T04:56:48.739Z,95615.67
2017-07-04T04:59:16.324Z,95616.30
2017-07-04T05:01:43.918Z,95626.76
2017-07-04T05:04:11.426Z,95626.42
2017-07-04T05:06:38.969Z,95639.77
2017-07-04T05:09:06.572Z,95631.34
2017-07-04T05:11:34.146Z,95638.19
2017-07-04T05:14:01.661Z,95641.25
2017-07-04T05:16:29.218Z,95659.67
2017-07-04T05:18:56.761Z,95650.02
2017-07-04T05:21:24.306Z,95657.28
2017-07-04T05:23:51.955Z,95660.91
2017-07-04T05:26:19.503Z,95658.34
2017-07-04T05:28:47.274Z,95671.80
2017-07-04T05:31:14.852Z,95672.89
2017-07-04T05:33:42.384Z,95672.20
2017-07-04T05:36:10.145Z,95674.28
2017-07-04T05:38:37.729Z,95678.25
2017-07-04T05:41:05.286Z,95678.47
2017-07-04T05:43:32.881Z,95676.27
2017-07-04T05:46:00.493Z,95677.99
2017-07-04T05:48:28.089Z,95677.58
2017-07-04T05:50:55.614Z,95679.44
2017-07-04T05:53:23.208Z,95689.97
2017-07-04T05:55:50.818Z,95685.93
2017-07-04T05:58:19.251Z,95690.80
2017-07-04T06:00:46.851Z,95686.02
2017-07-04T06:03:14.387Z,95693.14
2017-07-04T06:05:41.909Z,95690.47
2017-07-04T06:08:09.559Z,95698.02
2017-07-04T06:10:37.305Z,95695.51
2017-07-04T06:13:05.072Z,95698.30
2017-07-04T06:15:32.656Z,95701.28
2017-07-04T06:18:00.406Z,95706.02
2017-07-04T06:20:27.982Z,95705.63
2017-07-04T06:22:55.584Z,95704.08
2017-07-04T06:25:23.154Z,95706.62
2017-07-04T06:27:50.686Z,95713.12
2017-07-04T06:30:18.372Z,95704.50
2017-07-04T06:32:45.913Z,95714.89
2017-07-04T06:35:13.535Z,95718.25
2017-07-04T06:37:41.165Z,95717.66
2017-07-04T06:40:08.918Z,95723.54
2017-07-04T06:42:36.671Z,95726.70
2017-07-04T06:45:04.258Z,95728.41
2017-07-04T06:47:31.871Z,95734.31
2017-07-04T06:49:59.715Z,95726.47
2017-07-04T06:52:27.331Z,95737.84
2017-07-04T06:54:54.935Z,95729.62
2017-07-04T06:57:22.511Z,95732.16
2017-07-04T06:59:50.101Z,95721.76
2017-07-04T07:02:17.743Z,95720.20
2017-07-04T07:04:45.318Z,95730.42
2017-07-04T07:07:13.053Z,95733.93
2017-07-04T07:09:40.692Z,95732.09
2017-07-04T07:12:08.221Z,95724.98
2017-07-04T07:14:35.736Z,95727.64
2017-07-04T07:17:04.260Z,95721.75
2017-07-04T07:19:31.839Z,95732.96
2017-07-04T07:21:59.450Z,95731.93
2017-07-04T07:24:27.026Z,95733.05
2017-07-04T07:26:54.658Z,95724.05
2017-07-04T07:29:22.205Z,95722.68
2017-07-04T07:31:50.020Z,95732.03
2017-07-04T07:34:17.627Z,95725.72
2017-07-04T07:36:45.457Z,95731.21
2017-07-04T07:39:13.097Z,95735.29
2017-07-04T07:41:40.640Z,95739.59
2017-07-04T07:44:08.231Z,95739.25
2017-07-04T07:46:35.859Z,95744.91
2017-07-04T07:49:03.651Z,95749.97
2017-07-04T07:51:31.196Z,95741.84
2017-07-04T07:53:58.783Z,95748.80
2017-07-04T07:56:26.308Z,95742.31
2017-07-04T07:58:53.826Z,95752.08
2017-07-04T08:01:21.413Z,95751.89
2017-07-04T08:03:48.977Z,95744.88
2017-07-04T08:06:16.540Z,95741.13
2017-07-04T08:08:44.331Z,95745.91
2017-07-04T08:11:11.897Z,95749.73
2017-07-04T08:13:39.519Z,95753.41
2017-07-04T08:16:07.109Z,95743.23
2017-07-04T08:18:34.680Z,95744.42
2017-07-04T08:21:02.450Z,95744.05
2017-07-04T08:23:30.022Z,95741.23
2017-07-04T08:25:57.629Z,95744.92
2017-07-04T08:28:25.175Z,95747.66
2017-07-04T08:30:52.761Z,95746.22
2017-07-04T08:33:21.462Z,95743.45
2017-07-04T08:35:49.185Z,95746.45
2017-07-04T08:38:16.769Z,95743.69
2017-07-04T08:40:44.395Z,95750.17
2017-07-04T08:43:11.949Z,95742.81
2017-07-04T08:45:39.603Z,95751.95
2017-07-04T08:48:07.370Z,95748.26
2017-07-04T08:50:34.992Z,95745.30
2017-07-04T08:53:02.592Z,95745.64
2017-07-04T08:55:30.370Z,95746.34
2017-07-04T08:57:57.953Z,95754.28
2017-07-04T09:00:25.545Z,95751.59
2017-07-04T09:02:53.096Z,95746.45
2017-07-04T09:05:20.710Z,95761.82
2017-07-04T09:07:48.283Z,95753.81
2017-07-04T09:10:15.799Z,95753.34
2017-07-04T09:12:43.381Z,95751.48
2017-07-04T09:15:11.662Z,95749.11
2017-07-04T09:17:39.209Z,95745.53
2017-07-04T09:20:06.774Z,95755.56
2017-07-04T09:22:34.362Z,95745.36
2017-07-04T09:25:02.185Z,95741.86
2017-07-04T09:27:29.724Z,95746.16
2017-07-04T09:29:57.527Z,95737.02
2017-07-04T09:32:25.115Z,95739.38
2017-07-04T09:34:52.779Z,95737.78
2017-07-04T09:37:20.360Z,95734.21
2017-07-04T09:39:47.954Z,95732.10
2017-07-04T09:42:15.777Z,95729.97
2017-07-04T09:44:43.340Z,95727.95
2017-07-04T09:47:10.932Z,95722.55
2017-07-04T09:49:38.500Z,95719.94
2017-07-04T09:52:06.040Z,95724.77
2017-07-04T09:54:33.601Z,95718.30
2017-07-04T09:57:01.226Z,95727.83
2017-07-04T09:59:28.821Z,95719.43
2017-07-04T10:01:56.441Z,95718.49
2017-07-04T10:04:24.365Z,95710.73
2017-07-04T10:06:51.876Z,95713.05
2017-07-04T10:09:19.475Z,95714.97
2017-07-04T10:11:47.024Z,95716.17
2017-07-04T10:14:14.561Z,95706.28
2017-07-04T10:16:42.499Z,95711.17
2017-07-04T10:19:10.051Z,95710.39
2017-07-04T10:21:37.790Z,95714.48
2017-07-04T10:24:05.369Z,95705.70
2017-07-04T10:26:33.106Z,95702.49
2017-07-04T10:29:00.907Z,95712.25
2017-07-04T10:31:28.508Z,95701.85
2017-07-04T10:33:56.055Z,95704.07
2017-07-04T10:36:23.630Z,95699.28
2017-07-04T10:38:51.610Z,95698.27
2017-07-04T10:41:19.197Z,95695.15
2017-07-04T10:43:46.737Z,95696.86
2017-07-04T10:46:14.344Z,95700.38
2017-07-04T10:48:42.163Z,95693.02
2017-07-04T10:51:09.732Z,95692.56
2017-07-04T10:53:37.322Z,95694.95
2017-07-04T10:56:04.887Z,95691.05
2017-07-04T10:58:32.401Z,95696.81
2017-07-04T11:01:00.021Z,95687.63
2017-07-04T11:03:27.928Z,95689.28
2017-07-04T11:05:55.487Z,95689.02
2017-07-04T11:08:23.102Z,95688.29
2017-07-04T11:10:50.634Z,95686.14
2017-07-04T11:13:18.227Z,95684.69
2017-07-04T11:15:45.854Z,95686.98
2017-07-04T11:18:14.104Z,95683.36
2017-07-04T11:20:41.691Z,95678.83
2017-07-04T11:23:09.277Z,95683.63
2017-07-04T11:25:36.869Z,95684.82
2017-07-04T11:28:04.454Z,95675.81
2017-07-04T11:30:32.433Z,95672.52
2017-07-04T11:33:00.194Z,95666.31
2017-07-04T11:35:27.932Z,95664.87
2017-07-04T11:37:55.575Z,95664.91
2017-07-04T11:40:23.112Z,95661.05
2017-07-04T11:42:50.842Z,95663.78
2017-07-04T11:45:18.474Z,95671.07
2017-07-04T11:47:46.266Z,95669.48
2017-07-04T11:50:13.858Z,95669.83
2017-07-04T11:52:41.484Z,95661.36
2017-07-04T11:55:09.069Z,95667.87
2017-07-04T11:57:36.662Z,95668.17
2017-07-04T12:00:08.757Z,95661.02
2017-07-04T12:02:36.326Z,95666.91
2017-07-04T12:05:03.940Z,95662.94
2017-07-04T12:07:31.557Z,95662.24
2017-07-04T12:09:59.357Z,95657.58
2017-07-04T12:12:26.996Z,95672.88
2017-07-04T12:14:54.688Z,95669.77
2017-07-04T12:17:22.316Z,95667.09
2017-07-04T12:19:49.892Z,95659.70
2017-07-04T12:22:17.599Z,95667.92
2017-07-04T12:24:45.252Z,95665.02
2017-07-04T12:27:12.854Z,95652.96
2017-07-04T12:29:40.512Z,95657.05
2017-07-04T12:32:08.147Z,95655.67
2017-07-04T12:34:35.699Z,95660.19
2017-07-04T12:37:03.280Z,95662.41
2017-07-04T12:39:30.879Z,95658.59
2017-07-04T12:41:58.484Z,95656.25
2017-07-04T12:44:26.069Z,95658.63
2017-07-04T12:46:53.679Z,95655.53
2017-07-04T12:49:21.305Z,95650.86
2017-07-04T12:51:49.101Z,95650.45
2017-07-04T12:54:16.740Z,95650.41
2017-07-04T12:56:44.311Z,95649.41
2017-07-04T12:59:11.904Z,95649.06
2017-07-04T13:01:39.568Z,95652.16
2017-07-04T13:04:07.189Z,95644.94
2017-07-04T13:06:34.783Z,95645.27
2017-07-04T13:09:03.585Z,95642.52
2017-07-04T13:11:31.130Z,95637.88
2017-07-04T13:13:58.971Z,95641.72
2017-07-04T13:16:26.669Z,95642.69
2017-07-04T13:18:54.241Z,95645.30
2017-07-04T13:21:22.056Z,95641.15
2017-07-04T13:23:49.878Z,95649.65
2017-07-04T13:26:17.609Z,95645.81
2017-07-04T13:28:45.749Z,95651.89
2017-07-04T13:31:13.892Z,95644.85
2017-07-04T13:33:41.481Z,95649.30
2017-07-04T13:36:09.042Z,95648.13
2017-07-04T13:38:36.749Z,95643.50
2017-07-04T13:41:04.377Z,95646.42
2017-07-04T13:43:31.998Z,95652.74
2017-07-04T13:45:59.912Z,95655.03
2017-07-04T13:48:28.136Z,95650.32
2017-07-04T13:50:55.709Z,95648.80
2017-07-04T13:53:23.381Z,95650.69
2017-07-04T13:55:50.949Z,95639.74
2017-07-04T13:58:18.495Z,95649.13
2017-07-04T14:00:46.122Z,95641.43
2017-07-04T14:03:13.788Z,95647.46
2017-07-04T14:05:41.588Z,95646.95
2017-07-04T14:08:09.232Z,95644.57
2017-07-04T14:10:36.843Z,95631.78
2017-07-04T14:13:04.449Z,95643.95
2017-07-04T14:15:32.069Z,95639.81
2017-07-04T14:17:59.693Z,95642.38
2017-07-04T14:20:27.382Z,95639.16
2017-07-04T14:22:54.999Z,95648.80
2017-07-04T14:25:22.780Z,95642.53
2017-07-04T14:27:50.347Z,95649.89
2017-07-04T14:30:18.349Z,95648.40
2017-07-04T14:32:45.984Z,95647.98
2017-07-04T14:35:13.626Z,95651.34
2017-07-04T14:37:41.251Z,95650.57
2017-07-04T14:40:09.024Z,95648.52
2017-07-04T14:42:36.621Z,95643.88
2017-07-04T14:45:04.240Z,95653.03
2017-07-04T14:47:32.938Z,95650.41
2017-07-04T14:50:00.520Z,95645.11
2017-07-04T14:52:28.244Z,95639.39
2017-07-04T14:54:55.900Z,95642.19
2017-07-04T14:57:23.690Z,95636.63
2017-07-04T14:59:51.312Z,95637.92
2017-07-04T15:02:19.388Z,95643.14
2017-07-04T15:04:47.033Z,95639.14
2017-07-04T15:07:14.822Z,95630.85
2017-07-04T15:09:42.510Z,95635.48
2017-07-04T15:12:10.101Z,95625.03
2017-07-04T15:14:37.793Z,95630.16
2017-07-04T15:17:05.409Z,95631.97
2017-07-04T15:19:33.053Z,95632.15
2017-07-04T15:22:00.665Z,95631.97
2017-07-04T15:24:28.340Z,95638.50
2017-07-04T15:26:55.913Z,95630.45
2017-07-04T15:29:23.519Z,95631.70
2017-07-04T15:31:51.147Z,95635.27
2017-07-04T15:34:18.799Z,95638.22
2017-07-04T15:36:46.544Z,95643.98
2017-07-04T15:39:14.364Z,95641.74
2017-07-04T15:41:41.988Z,95643.41
2017-07-04T15:44:09.601Z,95638.12
2017-07-04T15:46:37.257Z,95633.09
2017-07-04T15:49:04.917Z,95642.64
2017-07-04T15:51:32.519Z,95635.67
2017-07-04T15:54:00.124Z,95649.36
2017-07-04T15:56:28.293Z,95650.79
2017-07-04T15:58:56.151Z,95641.99
2017-07-04T16:01:23.808Z,95657.47
2017-07-04T16:03:51.391Z,95651.31
2017-07-04T16:06:19.557Z,95651.30
2017-07-04T16:08:47.177Z,95653.43
2017-07-04T16:11:14.757Z,95651.41
2017-07-04T16:13:42.348Z,95652.35
2017-07-04T16:16:09.953Z,95655.36
2017-07-04T16:18:37.628Z,95654.83
2017-07-04T16:21:05.281Z,95655.59
2017-07-04T16:23:32.910Z,95660.25
2017-07-04T16:26:01.173Z,95657.55
2017-07-04T16:28:28.771Z,95666.80
2017-07-04T16:30:56.497Z,95669.09
2017-07-04T16:33:24.695Z,95669.05
2017-07-04T16:35:52.304Z,95666.53
2017-07-04T16:38:19.902Z,95677.47
2017-07-04T16:40:47.439Z,95674.34
2017-07-04T16:43:15.034Z,95677.71
2017-07-04T16:45:42.635Z,95685.88
2017-07-04T16:48:10.301Z,95684.28
2017-07-04T16:50:38.286Z,95688.02
2017-07-04T16:53:05.996Z,95686.16
2017-07-04T16:55:34.159Z,95692.20
2017-07-04T16:58:01.804Z,95694.66
2017-07-04T17:00:29.498Z,95704.67
2017-07-04T17:02:57.913Z,95701.59
2017-07-04T17:05:25.459Z,95697.97
2017-07-04T17:07:53.137Z,95699.98
2017-07-04T17:10:20.719Z,95705.31
2017-07-04T17:12:48.302Z,95706.89
2017-07-04T17:15:15.908Z,95716.89
2017-07-04T17:17:43.627Z,95707.03
2017-07-04T17:20:11.252Z,95712.95
2017-07-04T17:22:38.937Z,95712.48
2017-07-04T17:25:06.544Z,95721.22
2017-07-04T17:27:34.965Z,95718.42
2017-07-04T17:30:09.906Z,95723.98
2017-07-04T17:32:37.554Z,95727.44
2017-07-04T17:35:05.171Z,95728.53
2017-07-04T17:37:33.641Z,95730.99
2017-07-04T17:40:01.266Z,95742.33
2017-07-04T17:42:28.918Z,95744.73
2017-07-04T17:44:56.950Z,95744.56
2017-07-04T17:47:24.552Z,95752.17
2017-07-04T17:49:52.176Z,95752.27
2017-07-04T17:52:19.691Z,95753.81
2017-07-04T17:54:47.574Z,95757.39
2017-07-04T17:57:15.147Z,95759.02
2017-07-04T17:59:42.715Z,95757.84
2017-07-04T18:02:10.343Z,95764.91
2017-07-04T18:04:37.904Z,95764.20
2017-07-04T18:07:05.485Z,95772.29
2017-07-04T18:09:33.134Z,95761.50
2017-07-04T18:12:00.924Z,95779.27
2017-07-04T18:14:28.687Z,95779.07
2017-07-04T18:16:56.313Z,95775.45
2017-07-04T18:19:23.928Z,95782.17
2017-07-04T18:21:51.475Z,95782.22
2017-07-04T18:24:19.099Z,95790.87
2017-07-04T18:26:46.983Z,95794.53
2017-07-04T18:29:14.591Z,95793.17
2017-07-04T18:31:42.173Z,95796.61
2017-07-04T18:34:09.794Z,95804.52
2017-07-04T18:36:37.389Z,95806.28
2017-07-04T18:39:05.023Z,95813.05
2017-07-04T18:41:32.901Z,95817.79
2017-07-04T18:44:00.539Z,95825.75
2017-07-04T18:46:28.236Z,95832.19
2017-07-04T18:48:55.855Z,95830.62
2017-07-04T18:51:23.631Z,95844.48
2017-07-04T18:53:51.921Z,95838.53
2017-07-04T18:56:19.509Z,95842.92
2017-07-04T18:58:47.074Z,95851.77
2017-07-04T19:01:14.654Z,95854.55
2017-07-04T19:03:42.234Z,95853.75
2017-07-04T19:06:09.976Z,95855.91
2017-07-04T19:08:37.625Z,95858.65
2017-07-04T19:11:05.463Z,95864.64
2017-07-04T19:13:33.087Z,95861.89
2017-07-04T19:16:00.657Z,95867.45
2017-07-04T19:18:28.340Z,95872.38
2017-07-04T19:20:55.899Z,95869.81
2017-07-04T19:23:23.532Z,95869.45
2017-07-04T19:25:51.126Z,95873.61
2017-07-04T19:28:18.725Z,95868.29
2017-07-04T19:30:46.347Z,95874.64
2017-07-04T19:33:13.894Z,95884.08
2017-07-04T19:35:41.485Z,95881.29
2017-07-04T19:38:09.392Z,95886.21
2017-07-04T19:40:37.189Z,95886.42
2017-07-04T19:43:05.124Z,95889.69
2017-07-04T19:45:33.532Z,95893.61
2017-07-04T19:48:01.479Z,95890.70
2017-07-04T19:50:29.358Z,95899.98
2017-07-04T19:52:56.992Z,95884.87
2017-07-04T19:55:25.171Z,95895.89
2017-07-04T19:57:53.115Z,95901.13
2017-07-04T20:00:20.713Z,95900.99
2017-07-04T20:02:48.381Z,95892.78
2017-07-04T20:05:16.896Z,95895.38
2017-07-04T20:07:44.601Z,95897.89
2017-07-04T20:10:12.176Z,95896.12
2017-07-04T20:12:39.817Z,95901.48
2017-07-04T20:15:07.415Z,95903.41
2017-07-04T20:17:35.016Z,95900.67
2017-07-04T20:20:02.626Z,95903.28
2017-07-04T20:22:30.221Z,95906.23
2017-07-04T20:24:57.973Z,95897.95
2017-07-04T20:27:25.728Z,95910.36
2017-07-04T20:29:54.345Z,95907.23
2017-07-04T20:32:21.944Z,95910.41
2017-07-04T20:34:50.370Z,95911.58
2017-07-04T20:37:18.000Z,95918.84
2017-07-04T20:39:45.627Z,95919.62
2017-07-04T20:42:14.190Z,95915.48
2017-07-04T20:44:41.810Z,95919.20
2017-07-04T20:47:09.428Z,95923.73
2017-07-04T20:49:37.207Z,95917.66
2017-07-04T20:52:04.831Z,95929.27
2017-07-04T20:54:32.520Z,95920.82
2017-07-04T20:57:00.073Z,95921.41
2017-07-04T20:59:27.711Z,95929.30
2017-07-04T21:01:55.322Z,95929.50
2017-07-04T21:04:22.978Z,95933.43
2017-07-04T21:06:50.770Z,95929.69
2017-07-04T21:09:18.407Z,95934.43
2017-07-04T21:11:46.008Z,95935.80
2017-07-04T21:14:13.676Z,95932.67
2017-07-04T21:16:42.079Z,95930.89
2017-07-04T21:19:09.663Z,95936.59
2017-07-04T21:21:37.378Z,95938.37
2017-07-04T21:24:04.993Z,95947.19
2017-07-04T21:26:32.540Z,95938.30
2017-07-04T21:29:00.117Z,95938.74
2017-07-04T21:31:27.720Z,95946.82
2017-07-04T21:33:55.580Z,95945.22
2017-07-04T21:36:23.211Z,95938.18
2017-07-04T21:38:50.805Z,95943.09
2017-07-04T21:41:18.368Z,95938.94
2017-07-04T21:43:47.256Z,95938.73
2017-07-04T21:46:14.900Z,95938.55
2017-07-04T21:48:43.560Z,95945.56
2017-07-04T21:51:11.069Z,95945.41
2017-07-04T21:53:39.515Z,95948.15
2017-07-04T21:56:07.350Z,95949.33
2017-07-04T21:58:35.044Z,95947.36
2017-07-04T22:01:02.639Z,95950.48
2017-07-04T22:03:30.219Z,95942.66
2017-07-04T22:05:57.809Z,95941.46
2017-07-04T22:08:25.388Z,95942.45
2017-07-04T22:10:52.977Z,95945.64
2017-07-04T22:13:20.498Z,95944.44
2017-07-04T22:15:48.126Z,95945.98
2017-07-04T22:18:15.914Z,95954.44
2017-07-04T22:20:43.465Z,95952.44
2017-07-04T22:23:11.073Z,95957.73
2017-07-04T22:25:38.936Z,95956.77
2017-07-04T22:28:06.722Z,95954.16
2017-07-04T22:30:34.312Z,95958.64
2017-07-04T22:33:01.905Z,95957.49
2017-07-04T22:35:29.713Z,95953.59
2017-07-04T22:37:57.314Z,95954.75
2017-07-04T22:40:24.931Z,95954.16
2017-07-04T22:42:52.539Z,95950.83
2017-07-04T22:45:20.132Z,95954.33
2017-07-04T22:47:47.883Z,95947.86
2017-07-04T22:50:15.456Z,95955.89
2017-07-04T22:52:43.050Z,95943.34
2017-07-04T22:55:10.701Z,95952.88
2017-07-04T22:57:38.453Z,95946.67
2017-07-04T23:00:07.178Z,95947.39
2017-07-04T23:02:34.790Z,95935.98
2017-07-04T23:05:02.528Z,95946.20
2017-07-04T23:07:30.136Z,95946.41
2017-07-04T23:09:57.898Z,95944.24
2017-07-04T23:12:26.223Z,95942.48
2017-07-04T23:14:53.803Z,95945.62
2017-07-04T23:17:21.523Z,95944.67
2017-07-04T23:19:49.322Z,95947.20
2017-07-04T23:22:17.218Z,95942.97
2017-07-04T23:24:45.244Z,95938.46
2017-07-04T23:27:12.809Z,95941.11
2017-07-04T23:29:40.469Z,95947.09
2017-07-04T23:32:08.092Z,95941.85
2017-07-04T23:34:35.601Z,95939.28
2017-07-04T23:37:03.207Z,95938.62
2017-07-04T23:39:30.843Z,95943.30
2017-07-04T23:41:58.413Z,95944.31
2017-07-04T23:44:26.899Z,95939.48
2017-07-04T23:46:54.510Z,95948.47
2017-07-04T23:49:22.103Z,95934.59
2017-07-04T23:51:49.685Z,95942.38
2017-07-04T23:54:17.270Z,95945.08
2017-07-04T23:56:44.849Z,95946.27
2017-07-04T23:59:12.363Z,95939.02
